sensor_id;sensor_type;location;lat;lon;timestamp;P1;durP1;ratioP1;P2;durP2;ratioP2
56999;SDS011;42891;50.006;21.964;2023-11-19T00:02:14;26.05;;;16.17;;
56999;SDS011;42891;50.006;21.964;2023-11-19T00:06:15;25.98;;;16.83;;
56999;SDS011;42891;50.006;21.964;2023-11-19T00:10:16;29.67;;;17.15;;
56999;SDS011;42891;50.006;21.964;2023-11-19T00:14:20;26.40;;;15.45;;
56999;SDS011;42891;50.006;21.964;2023-11-19T00:18:21;27.88;;;16.33;;
56999;SDS011;42891;50.006;21.964;2023-11-19T00:22:22;24.40;;;14.82;;
56999;SDS011;42891;50.006;21.964;2023-11-19T00:26:22;24.13;;;14.80;;
56999;SDS011;42891;50.006;21.964;2023-11-19T00:30:22;23.00;;;14.87;;
56999;SDS011;42891;50.006;21.964;2023-11-19T00:34:23;24.73;;;14.85;;
56999;SDS011;42891;50.006;21.964;2023-11-19T00:38:23;24.95;;;15.80;;
56999;SDS011;42891;50.006;21.964;2023-11-19T00:42:23;28.27;;;17.70;;
56999;SDS011;42891;50.006;21.964;2023-11-19T00:46:24;28.23;;;17.60;;
56999;SDS011;42891;50.006;21.964;2023-11-19T00:50:25;24.77;;;16.00;;
56999;SDS011;42891;50.006;21.964;2023-11-19T00:54:25;26.80;;;15.48;;
56999;SDS011;42891;50.006;21.964;2023-11-19T00:58:26;32.63;;;17.70;;
56999;SDS011;42891;50.006;21.964;2023-11-19T01:02:27;28.52;;;16.48;;
56999;SDS011;42891;50.006;21.964;2023-11-19T01:06:30;27.52;;;15.98;;
56999;SDS011;42891;50.006;21.964;2023-11-19T01:10:30;28.08;;;16.55;;
56999;SDS011;42891;50.006;21.964;2023-11-19T01:14:31;25.37;;;15.70;;
56999;SDS011;42891;50.006;21.964;2023-11-19T01:18:31;27.25;;;15.98;;
56999;SDS011;42891;50.006;21.964;2023-11-19T01:22:31;24.00;;;15.10;;
56999;SDS011;42891;50.006;21.964;2023-11-19T01:26:32;25.90;;;15.80;;
56999;SDS011;42891;50.006;21.964;2023-11-19T01:30:32;29.90;;;17.37;;
56999;SDS011;42891;50.006;21.964;2023-11-19T01:34:33;25.60;;;15.18;;
56999;SDS011;42891;50.006;21.964;2023-11-19T01:38:33;25.93;;;16.40;;
56999;SDS011;42891;50.006;21.964;2023-11-19T01:42:37;25.52;;;15.63;;
56999;SDS011;42891;50.006;21.964;2023-11-19T01:46:40;28.45;;;16.77;;
56999;SDS011;42891;50.006;21.964;2023-11-19T01:50:42;25.60;;;17.10;;
56999;SDS011;42891;50.006;21.964;2023-11-19T01:54:42;25.58;;;15.90;;
56999;SDS011;42891;50.006;21.964;2023-11-19T01:58:43;21.50;;;14.68;;
56999;SDS011;42891;50.006;21.964;2023-11-19T02:02:48;23.02;;;14.30;;
56999;SDS011;42891;50.006;21.964;2023-11-19T02:06:49;23.88;;;15.20;;
56999;SDS011;42891;50.006;21.964;2023-11-19T02:10:54;21.50;;;13.90;;
56999;SDS011;42891;50.006;21.964;2023-11-19T02:14:57;23.60;;;15.35;;
56999;SDS011;42891;50.006;21.964;2023-11-19T02:18:59;24.15;;;14.45;;
56999;SDS011;42891;50.006;21.964;2023-11-19T02:22:59;22.35;;;13.90;;
56999;SDS011;42891;50.006;21.964;2023-11-19T02:27:02;20.92;;;13.80;;
56999;SDS011;42891;50.006;21.964;2023-11-19T02:31:10;22.80;;;14.48;;
56999;SDS011;42891;50.006;21.964;2023-11-19T02:35:11;28.35;;;16.63;;
56999;SDS011;42891;50.006;21.964;2023-11-19T02:39:11;23.40;;;15.18;;
56999;SDS011;42891;50.006;21.964;2023-11-19T02:43:12;23.50;;;15.50;;
56999;SDS011;42891;50.006;21.964;2023-11-19T02:47:13;28.92;;;15.43;;
56999;SDS011;42891;50.006;21.964;2023-11-19T02:51:13;26.15;;;16.05;;
56999;SDS011;42891;50.006;21.964;2023-11-19T02:55:13;25.88;;;16.08;;
56999;SDS011;42891;50.006;21.964;2023-11-19T02:59:14;24.80;;;15.30;;
56999;SDS011;42891;50.006;21.964;2023-11-19T03:03:27;22.55;;;14.88;;
56999;SDS011;42891;50.006;21.964;2023-11-19T03:07:30;34.60;;;18.83;;
56999;SDS011;42891;50.006;21.964;2023-11-19T03:11:31;24.43;;;15.63;;
56999;SDS011;42891;50.006;21.964;2023-11-19T03:15:31;25.65;;;17.00;;
56999;SDS011;42891;50.006;21.964;2023-11-19T03:19:31;28.70;;;17.43;;
56999;SDS011;42891;50.006;21.964;2023-11-19T03:23:32;26.17;;;16.02;;
56999;SDS011;42891;50.006;21.964;2023-11-19T03:27:32;23.75;;;16.02;;
56999;SDS011;42891;50.006;21.964;2023-11-19T03:31:33;27.23;;;15.82;;
56999;SDS011;42891;50.006;21.964;2023-11-19T03:35:34;24.42;;;15.00;;
56999;SDS011;42891;50.006;21.964;2023-11-19T03:39:34;26.17;;;16.57;;
56999;SDS011;42891;50.006;21.964;2023-11-19T03:43:34;26.25;;;15.95;;
56999;SDS011;42891;50.006;21.964;2023-11-19T03:47:35;22.87;;;15.07;;
56999;SDS011;42891;50.006;21.964;2023-11-19T03:51:35;22.98;;;15.07;;
56999;SDS011;42891;50.006;21.964;2023-11-19T03:55:35;25.92;;;16.35;;
56999;SDS011;42891;50.006;21.964;2023-11-19T03:59:36;24.45;;;14.43;;
56999;SDS011;42891;50.006;21.964;2023-11-19T04:03:36;23.50;;;15.13;;
56999;SDS011;42891;50.006;21.964;2023-11-19T04:07:36;23.13;;;14.15;;
56999;SDS011;42891;50.006;21.964;2023-11-19T04:11:37;27.58;;;15.63;;
56999;SDS011;42891;50.006;21.964;2023-11-19T04:15:38;25.40;;;15.20;;
56999;SDS011;42891;50.006;21.964;2023-11-19T04:19:38;25.30;;;15.60;;
56999;SDS011;42891;50.006;21.964;2023-11-19T04:23:41;26.73;;;16.38;;
56999;SDS011;42891;50.006;21.964;2023-11-19T04:27:41;24.70;;;15.20;;
56999;SDS011;42891;50.006;21.964;2023-11-19T04:31:41;25.60;;;15.35;;
56999;SDS011;42891;50.006;21.964;2023-11-19T04:35:42;23.77;;;15.10;;
56999;SDS011;42891;50.006;21.964;2023-11-19T04:39:44;25.25;;;15.27;;
56999;SDS011;42891;50.006;21.964;2023-11-19T04:43:46;25.40;;;16.02;;
56999;SDS011;42891;50.006;21.964;2023-11-19T04:47:46;26.15;;;16.00;;
56999;SDS011;42891;50.006;21.964;2023-11-19T04:51:46;23.83;;;15.07;;
56999;SDS011;42891;50.006;21.964;2023-11-19T04:55:47;22.17;;;13.65;;
56999;SDS011;42891;50.006;21.964;2023-11-19T04:59:47;21.88;;;13.98;;
56999;SDS011;42891;50.006;21.964;2023-11-19T05:03:47;22.48;;;13.35;;
56999;SDS011;42891;50.006;21.964;2023-11-19T05:07:48;20.63;;;13.33;;
56999;SDS011;42891;50.006;21.964;2023-11-19T05:11:48;23.98;;;13.68;;
56999;SDS011;42891;50.006;21.964;2023-11-19T05:15:48;21.67;;;14.57;;
56999;SDS011;42891;50.006;21.964;2023-11-19T05:19:48;22.50;;;14.00;;
56999;SDS011;42891;50.006;21.964;2023-11-19T05:23:49;19.55;;;13.00;;
56999;SDS011;42891;50.006;21.964;2023-11-19T05:27:50;21.33;;;13.68;;
56999;SDS011;42891;50.006;21.964;2023-11-19T05:31:50;20.45;;;12.88;;
56999;SDS011;42891;50.006;21.964;2023-11-19T05:35:50;20.63;;;12.20;;
56999;SDS011;42891;50.006;21.964;2023-11-19T05:39:50;17.60;;;11.95;;
56999;SDS011;42891;50.006;21.964;2023-11-19T05:43:51;17.60;;;12.50;;
56999;SDS011;42891;50.006;21.964;2023-11-19T05:47:51;17.63;;;11.93;;
56999;SDS011;42891;50.006;21.964;2023-11-19T05:51:52;21.85;;;14.52;;
56999;SDS011;42891;50.006;21.964;2023-11-19T05:55:55;24.42;;;14.80;;
56999;SDS011;42891;50.006;21.964;2023-11-19T05:59:56;25.08;;;15.18;;
56999;SDS011;42891;50.006;21.964;2023-11-19T06:03:56;23.42;;;15.13;;
56999;SDS011;42891;50.006;21.964;2023-11-19T06:07:56;22.55;;;14.25;;
56999;SDS011;42891;50.006;21.964;2023-11-19T06:11:57;23.50;;;13.68;;
56999;SDS011;42891;50.006;21.964;2023-11-19T06:15:57;20.25;;;14.05;;
56999;SDS011;42891;50.006;21.964;2023-11-19T06:19:58;20.83;;;13.93;;
56999;SDS011;42891;50.006;21.964;2023-11-19T06:23:58;20.15;;;13.00;;
56999;SDS011;42891;50.006;21.964;2023-11-19T06:27:59;19.70;;;12.68;;
56999;SDS011;42891;50.006;21.964;2023-11-19T06:31:59;18.23;;;12.13;;
56999;SDS011;42891;50.006;21.964;2023-11-19T06:36:00;16.52;;;11.18;;
56999;SDS011;42891;50.006;21.964;2023-11-19T06:40:00;15.67;;;11.47;;
56999;SDS011;42891;50.006;21.964;2023-11-19T06:44:00;16.67;;;11.23;;
56999;SDS011;42891;50.006;21.964;2023-11-19T06:48:01;15.15;;;10.98;;
56999;SDS011;42891;50.006;21.964;2023-11-19T06:52:03;14.80;;;10.15;;
56999;SDS011;42891;50.006;21.964;2023-11-19T06:56:04;16.50;;;10.50;;
56999;SDS011;42891;50.006;21.964;2023-11-19T07:00:06;16.55;;;11.60;;
56999;SDS011;42891;50.006;21.964;2023-11-19T07:04:06;16.23;;;10.75;;
56999;SDS011;42891;50.006;21.964;2023-11-19T07:08:10;15.18;;;11.52;;
56999;SDS011;42891;50.006;21.964;2023-11-19T07:12:11;16.60;;;10.80;;
56999;SDS011;42891;50.006;21.964;2023-11-19T07:16:14;17.92;;;11.77;;
56999;SDS011;42891;50.006;21.964;2023-11-19T07:20:14;16.13;;;11.20;;
56999;SDS011;42891;50.006;21.964;2023-11-19T07:24:15;20.13;;;12.55;;
56999;SDS011;42891;50.006;21.964;2023-11-19T07:28:16;23.00;;;11.27;;
56999;SDS011;42891;50.006;21.964;2023-11-19T07:32:16;17.20;;;11.07;;
56999;SDS011;42891;50.006;21.964;2023-11-19T07:36:18;16.20;;;11.50;;
56999;SDS011;42891;50.006;21.964;2023-11-19T07:40:18;18.30;;;11.97;;
56999;SDS011;42891;50.006;21.964;2023-11-19T07:44:19;16.25;;;10.73;;
56999;SDS011;42891;50.006;21.964;2023-11-19T07:48:21;17.67;;;11.85;;
56999;SDS011;42891;50.006;21.964;2023-11-19T07:52:23;16.45;;;11.20;;
56999;SDS011;42891;50.006;21.964;2023-11-19T07:56:23;30.50;;;18.88;;
56999;SDS011;42891;50.006;21.964;2023-11-19T08:00:24;23.05;;;13.45;;
56999;SDS011;42891;50.006;21.964;2023-11-19T08:04:24;19.65;;;12.52;;
56999;SDS011;42891;50.006;21.964;2023-11-19T08:08:24;64.70;;;26.02;;
56999;SDS011;42891;50.006;21.964;2023-11-19T08:12:24;30.98;;;16.45;;
56999;SDS011;42891;50.006;21.964;2023-11-19T08:16:25;24.27;;;14.65;;
56999;SDS011;42891;50.006;21.964;2023-11-19T08:20:25;23.13;;;14.75;;
56999;SDS011;42891;50.006;21.964;2023-11-19T08:24:25;18.65;;;11.63;;
56999;SDS011;42891;50.006;21.964;2023-11-19T08:28:26;21.40;;;12.90;;
56999;SDS011;42891;50.006;21.964;2023-11-19T08:32:26;21.52;;;12.55;;
56999;SDS011;42891;50.006;21.964;2023-11-19T08:36:27;25.45;;;13.45;;
56999;SDS011;42891;50.006;21.964;2023-11-19T08:40:28;24.55;;;14.48;;
56999;SDS011;42891;50.006;21.964;2023-11-19T08:44:29;33.53;;;20.40;;
56999;SDS011;42891;50.006;21.964;2023-11-19T08:48:30;19.48;;;11.32;;
56999;SDS011;42891;50.006;21.964;2023-11-19T08:52:30;24.08;;;13.15;;
56999;SDS011;42891;50.006;21.964;2023-11-19T08:56:30;17.05;;;11.02;;
56999;SDS011;42891;50.006;21.964;2023-11-19T09:00:32;25.13;;;12.57;;
56999;SDS011;42891;50.006;21.964;2023-11-19T09:04:33;36.23;;;16.13;;
56999;SDS011;42891;50.006;21.964;2023-11-19T09:08:33;23.25;;;11.95;;
56999;SDS011;42891;50.006;21.964;2023-11-19T09:12:33;23.87;;;13.53;;
56999;SDS011;42891;50.006;21.964;2023-11-19T09:16:34;18.83;;;11.73;;
56999;SDS011;42891;50.006;21.964;2023-11-19T09:20:35;18.33;;;10.65;;
56999;SDS011;42891;50.006;21.964;2023-11-19T09:24:38;18.15;;;10.55;;
56999;SDS011;42891;50.006;21.964;2023-11-19T09:28:38;14.48;;;9.77;;
56999;SDS011;42891;50.006;21.964;2023-11-19T09:32:39;13.25;;;8.75;;
56999;SDS011;42891;50.006;21.964;2023-11-19T09:36:40;14.85;;;9.77;;
56999;SDS011;42891;50.006;21.964;2023-11-19T09:40:43;12.85;;;8.10;;
56999;SDS011;42891;50.006;21.964;2023-11-19T09:44:44;12.75;;;8.95;;
56999;SDS011;42891;50.006;21.964;2023-11-19T09:48:44;15.10;;;9.90;;
56999;SDS011;42891;50.006;21.964;2023-11-19T09:52:48;17.25;;;11.32;;
56999;SDS011;42891;50.006;21.964;2023-11-19T09:56:48;35.92;;;22.20;;
56999;SDS011;42891;50.006;21.964;2023-11-19T10:00:49;18.73;;;12.65;;
56999;SDS011;42891;50.006;21.964;2023-11-19T10:04:51;37.78;;;23.27;;
56999;SDS011;42891;50.006;21.964;2023-11-19T10:08:53;109.18;;;57.70;;
56999;SDS011;42891;50.006;21.964;2023-11-19T10:12:54;48.72;;;27.55;;
56999;SDS011;42891;50.006;21.964;2023-11-19T10:16:55;62.28;;;32.30;;
56999;SDS011;42891;50.006;21.964;2023-11-19T10:20:55;32.08;;;18.35;;
56999;SDS011;42891;50.006;21.964;2023-11-19T10:24:56;34.08;;;24.17;;
56999;SDS011;42891;50.006;21.964;2023-11-19T10:28:56;21.60;;;15.75;;
56999;SDS011;42891;50.006;21.964;2023-11-19T10:33:07;19.77;;;10.93;;
56999;SDS011;42891;50.006;21.964;2023-11-19T10:37:09;18.77;;;10.55;;
56999;SDS011;42891;50.006;21.964;2023-11-19T10:41:09;17.92;;;10.73;;
56999;SDS011;42891;50.006;21.964;2023-11-19T10:45:22;25.15;;;13.90;;
56999;SDS011;42891;50.006;21.964;2023-11-19T10:49:23;23.15;;;10.75;;
56999;SDS011;42891;50.006;21.964;2023-11-19T10:53:24;25.20;;;16.27;;
56999;SDS011;42891;50.006;21.964;2023-11-19T10:57:26;14.65;;;9.90;;
56999;SDS011;42891;50.006;21.964;2023-11-19T11:01:45;19.65;;;12.57;;
56999;SDS011;42891;50.006;21.964;2023-11-19T11:05:46;45.65;;;26.30;;
56999;SDS011;42891;50.006;21.964;2023-11-19T11:09:47;15.15;;;10.95;;
56999;SDS011;42891;50.006;21.964;2023-11-19T11:13:49;21.33;;;12.98;;
56999;SDS011;42891;50.006;21.964;2023-11-19T11:17:50;19.33;;;10.95;;
56999;SDS011;42891;50.006;21.964;2023-11-19T11:21:56;22.77;;;12.20;;
56999;SDS011;42891;50.006;21.964;2023-11-19T11:30:44;15.40;;;9.43;;
56999;SDS011;42891;50.006;21.964;2023-11-19T11:34:58;19.25;;;12.65;;
56999;SDS011;42891;50.006;21.964;2023-11-19T11:39:07;16.08;;;9.75;;
56999;SDS011;42891;50.006;21.964;2023-11-19T11:59:48;27.80;;;15.65;;
56999;SDS011;42891;50.006;21.964;2023-11-19T12:03:49;19.90;;;12.32;;
56999;SDS011;42891;50.006;21.964;2023-11-19T12:07:59;14.23;;;9.13;;
56999;SDS011;42891;50.006;21.964;2023-11-19T12:16:14;12.98;;;8.98;;
56999;SDS011;42891;50.006;21.964;2023-11-19T12:20:14;18.85;;;11.00;;
56999;SDS011;42891;50.006;21.964;2023-11-19T12:24:16;13.00;;;8.60;;
56999;SDS011;42891;50.006;21.964;2023-11-19T12:28:17;12.82;;;8.45;;
56999;SDS011;42891;50.006;21.964;2023-11-19T12:32:17;40.92;;;21.05;;
56999;SDS011;42891;50.006;21.964;2023-11-19T12:36:18;39.95;;;21.75;;
56999;SDS011;42891;50.006;21.964;2023-11-19T12:40:23;15.30;;;10.25;;
56999;SDS011;42891;50.006;21.964;2023-11-19T12:44:25;39.40;;;21.42;;
56999;SDS011;42891;50.006;21.964;2023-11-19T12:48:25;14.32;;;9.95;;
56999;SDS011;42891;50.006;21.964;2023-11-19T12:52:26;13.52;;;8.63;;
56999;SDS011;42891;50.006;21.964;2023-11-19T12:56:27;15.32;;;9.95;;
56999;SDS011;42891;50.006;21.964;2023-11-19T13:00:27;16.90;;;11.18;;
56999;SDS011;42891;50.006;21.964;2023-11-19T13:04:28;13.80;;;9.80;;
56999;SDS011;42891;50.006;21.964;2023-11-19T13:08:39;12.95;;;9.38;;
56999;SDS011;42891;50.006;21.964;2023-11-19T13:12:41;14.65;;;9.27;;
56999;SDS011;42891;50.006;21.964;2023-11-19T13:16:41;18.90;;;10.87;;
56999;SDS011;42891;50.006;21.964;2023-11-19T13:20:42;21.38;;;12.32;;
56999;SDS011;42891;50.006;21.964;2023-11-19T13:24:43;18.13;;;10.32;;
56999;SDS011;42891;50.006;21.964;2023-11-19T13:28:43;15.68;;;9.30;;
56999;SDS011;42891;50.006;21.964;2023-11-19T13:32:44;22.75;;;15.07;;
56999;SDS011;42891;50.006;21.964;2023-11-19T13:36:46;28.00;;;16.88;;
56999;SDS011;42891;50.006;21.964;2023-11-19T13:40:46;22.00;;;13.07;;
56999;SDS011;42891;50.006;21.964;2023-11-19T13:44:46;43.35;;;22.67;;
56999;SDS011;42891;50.006;21.964;2023-11-19T13:48:47;35.77;;;19.77;;
56999;SDS011;42891;50.006;21.964;2023-11-19T13:52:49;23.35;;;13.45;;
56999;SDS011;42891;50.006;21.964;2023-11-19T13:56:49;53.10;;;25.70;;
56999;SDS011;42891;50.006;21.964;2023-11-19T14:00:52;149.30;;;56.97;;
56999;SDS011;42891;50.006;21.964;2023-11-19T14:04:53;190.88;;;71.25;;
56999;SDS011;42891;50.006;21.964;2023-11-19T14:08:53;92.53;;;42.92;;
56999;SDS011;42891;50.006;21.964;2023-11-19T14:12:54;76.00;;;37.95;;
56999;SDS011;42891;50.006;21.964;2023-11-19T14:16:54;126.90;;;52.20;;
56999;SDS011;42891;50.006;21.964;2023-11-19T14:20:54;47.65;;;27.95;;
56999;SDS011;42891;50.006;21.964;2023-11-19T14:24:55;50.67;;;25.67;;
56999;SDS011;42891;50.006;21.964;2023-11-19T14:28:55;82.70;;;44.45;;
56999;SDS011;42891;50.006;21.964;2023-11-19T14:32:55;69.80;;;36.78;;
56999;SDS011;42891;50.006;21.964;2023-11-19T14:36:56;33.87;;;20.13;;
56999;SDS011;42891;50.006;21.964;2023-11-19T14:40:56;47.63;;;27.00;;
56999;SDS011;42891;50.006;21.964;2023-11-19T14:44:59;38.17;;;23.55;;
56999;SDS011;42891;50.006;21.964;2023-11-19T14:48:59;30.80;;;18.60;;
56999;SDS011;42891;50.006;21.964;2023-11-19T14:53:00;28.20;;;15.73;;
56999;SDS011;42891;50.006;21.964;2023-11-19T14:57:00;32.78;;;19.33;;
56999;SDS011;42891;50.006;21.964;2023-11-19T15:01:00;20.85;;;13.55;;
56999;SDS011;42891;50.006;21.964;2023-11-19T15:05:04;23.60;;;16.48;;
56999;SDS011;42891;50.006;21.964;2023-11-19T15:09:05;26.42;;;16.88;;
56999;SDS011;42891;50.006;21.964;2023-11-19T15:13:07;89.43;;;46.17;;
56999;SDS011;42891;50.006;21.964;2023-11-19T15:17:09;89.05;;;43.45;;
56999;SDS011;42891;50.006;21.964;2023-11-19T15:21:09;36.28;;;24.77;;
56999;SDS011;42891;50.006;21.964;2023-11-19T15:25:09;101.60;;;66.63;;
56999;SDS011;42891;50.006;21.964;2023-11-19T15:29:10;25.17;;;16.75;;
56999;SDS011;42891;50.006;21.964;2023-11-19T15:33:10;29.27;;;20.65;;
56999;SDS011;42891;50.006;21.964;2023-11-19T15:37:10;19.33;;;13.57;;
56999;SDS011;42891;50.006;21.964;2023-11-19T15:41:13;21.88;;;13.43;;
56999;SDS011;42891;50.006;21.964;2023-11-19T15:45:13;28.65;;;17.10;;
56999;SDS011;42891;50.006;21.964;2023-11-19T15:49:13;25.88;;;16.45;;
56999;SDS011;42891;50.006;21.964;2023-11-19T15:53:14;31.80;;;19.63;;
56999;SDS011;42891;50.006;21.964;2023-11-19T15:57:14;30.23;;;19.08;;
56999;SDS011;42891;50.006;21.964;2023-11-19T16:01:15;26.33;;;17.42;;
56999;SDS011;42891;50.006;21.964;2023-11-19T16:05:15;28.90;;;15.40;;
56999;SDS011;42891;50.006;21.964;2023-11-19T16:09:15;31.35;;;17.95;;
56999;SDS011;42891;50.006;21.964;2023-11-19T16:13:18;23.52;;;14.55;;
56999;SDS011;42891;50.006;21.964;2023-11-19T16:17:19;19.30;;;12.93;;
56999;SDS011;42891;50.006;21.964;2023-11-19T16:21:19;19.20;;;12.52;;
56999;SDS011;42891;50.006;21.964;2023-11-19T16:25:20;22.60;;;13.98;;
56999;SDS011;42891;50.006;21.964;2023-11-19T16:29:20;23.58;;;14.95;;
56999;SDS011;42891;50.006;21.964;2023-11-19T16:33:20;21.00;;;14.00;;
56999;SDS011;42891;50.006;21.964;2023-11-19T16:37:21;18.20;;;11.90;;
56999;SDS011;42891;50.006;21.964;2023-11-19T16:41:21;22.77;;;14.00;;
56999;SDS011;42891;50.006;21.964;2023-11-19T16:45:22;17.02;;;11.52;;
56999;SDS011;42891;50.006;21.964;2023-11-19T16:49:23;17.47;;;12.70;;
56999;SDS011;42891;50.006;21.964;2023-11-19T16:53:23;21.58;;;13.30;;
56999;SDS011;42891;50.006;21.964;2023-11-19T16:57:23;23.37;;;15.10;;
56999;SDS011;42891;50.006;21.964;2023-11-19T17:01:27;29.05;;;19.77;;
56999;SDS011;42891;50.006;21.964;2023-11-19T17:05:27;38.17;;;26.83;;
56999;SDS011;42891;50.006;21.964;2023-11-19T17:09:28;21.60;;;14.68;;
56999;SDS011;42891;50.006;21.964;2023-11-19T17:13:28;34.35;;;20.83;;
56999;SDS011;42891;50.006;21.964;2023-11-19T17:17:31;43.65;;;26.80;;
56999;SDS011;42891;50.006;21.964;2023-11-19T17:21:35;43.67;;;18.73;;
56999;SDS011;42891;50.006;21.964;2023-11-19T17:25:35;29.55;;;17.02;;
56999;SDS011;42891;50.006;21.964;2023-11-19T17:29:35;26.88;;;16.35;;
56999;SDS011;42891;50.006;21.964;2023-11-19T17:33:36;25.38;;;16.15;;
56999;SDS011;42891;50.006;21.964;2023-11-19T17:37:36;49.63;;;29.40;;
56999;SDS011;42891;50.006;21.964;2023-11-19T17:41:37;26.27;;;15.63;;
56999;SDS011;42891;50.006;21.964;2023-11-19T17:45:37;39.92;;;20.45;;
56999;SDS011;42891;50.006;21.964;2023-11-19T17:49:39;24.70;;;14.30;;
56999;SDS011;42891;50.006;21.964;2023-11-19T17:53:40;32.97;;;19.48;;
56999;SDS011;42891;50.006;21.964;2023-11-19T17:57:40;16.60;;;10.80;;
56999;SDS011;42891;50.006;21.964;2023-11-19T18:01:41;20.73;;;14.38;;
56999;SDS011;42891;50.006;21.964;2023-11-19T18:05:41;22.67;;;15.70;;
56999;SDS011;42891;50.006;21.964;2023-11-19T18:09:41;24.65;;;16.13;;
56999;SDS011;42891;50.006;21.964;2023-11-19T18:13:42;28.30;;;17.58;;
56999;SDS011;42891;50.006;21.964;2023-11-19T18:17:44;33.55;;;19.40;;
56999;SDS011;42891;50.006;21.964;2023-11-19T18:21:45;24.42;;;14.75;;
56999;SDS011;42891;50.006;21.964;2023-11-19T18:25:45;23.92;;;13.95;;
56999;SDS011;42891;50.006;21.964;2023-11-19T18:29:46;17.40;;;10.52;;
56999;SDS011;42891;50.006;21.964;2023-11-19T18:33:47;20.00;;;12.50;;
56999;SDS011;42891;50.006;21.964;2023-11-19T18:37:48;22.02;;;13.35;;
56999;SDS011;42891;50.006;21.964;2023-11-19T18:41:48;21.05;;;12.07;;
56999;SDS011;42891;50.006;21.964;2023-11-19T18:45:49;17.10;;;11.20;;
56999;SDS011;42891;50.006;21.964;2023-11-19T18:49:49;34.60;;;19.23;;
56999;SDS011;42891;50.006;21.964;2023-11-19T18:53:51;27.70;;;17.33;;
56999;SDS011;42891;50.006;21.964;2023-11-19T18:57:51;20.10;;;14.23;;
56999;SDS011;42891;50.006;21.964;2023-11-19T19:01:52;26.23;;;15.02;;
56999;SDS011;42891;50.006;21.964;2023-11-19T19:05:52;21.10;;;12.50;;
56999;SDS011;42891;50.006;21.964;2023-11-19T19:09:53;19.63;;;12.73;;
56999;SDS011;42891;50.006;21.964;2023-11-19T19:13:54;15.13;;;10.15;;
56999;SDS011;42891;50.006;21.964;2023-11-19T19:17:55;20.55;;;13.68;;
56999;SDS011;42891;50.006;21.964;2023-11-19T19:21:56;14.88;;;9.88;;
56999;SDS011;42891;50.006;21.964;2023-11-19T19:25:57;17.52;;;13.82;;
56999;SDS011;42891;50.006;21.964;2023-11-19T19:29:57;19.45;;;12.18;;
56999;SDS011;42891;50.006;21.964;2023-11-19T19:33:58;25.83;;;14.97;;
56999;SDS011;42891;50.006;21.964;2023-11-19T19:37:58;22.38;;;14.65;;
56999;SDS011;42891;50.006;21.964;2023-11-19T19:41:59;42.88;;;24.02;;
56999;SDS011;42891;50.006;21.964;2023-11-19T19:46:01;35.42;;;22.35;;
56999;SDS011;42891;50.006;21.964;2023-11-19T19:50:01;24.63;;;15.23;;
56999;SDS011;42891;50.006;21.964;2023-11-19T19:54:01;24.98;;;13.73;;
56999;SDS011;42891;50.006;21.964;2023-11-19T19:58:02;15.65;;;9.60;;
56999;SDS011;42891;50.006;21.964;2023-11-19T20:02:03;14.82;;;9.75;;
56999;SDS011;42891;50.006;21.964;2023-11-19T20:06:04;29.52;;;15.20;;
56999;SDS011;42891;50.006;21.964;2023-11-19T20:10:10;27.83;;;15.43;;
56999;SDS011;42891;50.006;21.964;2023-11-19T20:14:11;15.32;;;10.13;;
56999;SDS011;42891;50.006;21.964;2023-11-19T20:18:12;25.92;;;14.95;;
56999;SDS011;42891;50.006;21.964;2023-11-19T20:22:14;16.65;;;11.35;;
56999;SDS011;42891;50.006;21.964;2023-11-19T20:26:14;31.05;;;20.52;;
56999;SDS011;42891;50.006;21.964;2023-11-19T20:30:18;29.60;;;18.20;;
56999;SDS011;42891;50.006;21.964;2023-11-19T20:34:19;21.80;;;13.55;;
56999;SDS011;42891;50.006;21.964;2023-11-19T20:38:19;44.13;;;25.97;;
56999;SDS011;42891;50.006;21.964;2023-11-19T20:42:20;18.67;;;10.87;;
56999;SDS011;42891;50.006;21.964;2023-11-19T20:46:20;16.83;;;10.52;;
56999;SDS011;42891;50.006;21.964;2023-11-19T20:50:20;34.60;;;16.57;;
56999;SDS011;42891;50.006;21.964;2023-11-19T20:54:24;19.88;;;12.07;;
56999;SDS011;42891;50.006;21.964;2023-11-19T20:58:25;47.80;;;20.87;;
56999;SDS011;42891;50.006;21.964;2023-11-19T21:02:26;48.72;;;24.13;;
56999;SDS011;42891;50.006;21.964;2023-11-19T21:06:26;44.05;;;21.45;;
56999;SDS011;42891;50.006;21.964;2023-11-19T21:10:27;83.47;;;36.78;;
56999;SDS011;42891;50.006;21.964;2023-11-19T21:14:28;145.65;;;58.38;;
56999;SDS011;42891;50.006;21.964;2023-11-19T21:18:28;37.65;;;17.48;;
56999;SDS011;42891;50.006;21.964;2023-11-19T21:22:29;29.48;;;14.27;;
56999;SDS011;42891;50.006;21.964;2023-11-19T21:26:29;15.13;;;9.83;;
56999;SDS011;42891;50.006;21.964;2023-11-19T21:30:30;22.05;;;16.23;;
56999;SDS011;42891;50.006;21.964;2023-11-19T21:34:30;23.90;;;12.03;;
56999;SDS011;42891;50.006;21.964;2023-11-19T21:38:31;35.00;;;14.43;;
56999;SDS011;42891;50.006;21.964;2023-11-19T21:42:31;38.17;;;14.32;;
56999;SDS011;42891;50.006;21.964;2023-11-19T21:46:31;30.67;;;13.37;;
56999;SDS011;42891;50.006;21.964;2023-11-19T21:50:32;28.20;;;12.93;;
56999;SDS011;42891;50.006;21.964;2023-11-19T21:54:32;21.43;;;11.47;;
56999;SDS011;42891;50.006;21.964;2023-11-19T21:58:34;30.08;;;12.95;;
56999;SDS011;42891;50.006;21.964;2023-11-19T22:02:34;20.52;;;11.40;;
56999;SDS011;42891;50.006;21.964;2023-11-19T22:06:34;42.78;;;17.40;;
56999;SDS011;42891;50.006;21.964;2023-11-19T22:10:35;33.42;;;13.10;;
56999;SDS011;42891;50.006;21.964;2023-11-19T22:14:36;26.48;;;12.32;;
56999;SDS011;42891;50.006;21.964;2023-11-19T22:18:37;41.70;;;13.60;;
56999;SDS011;42891;50.006;21.964;2023-11-19T22:22:37;51.00;;;25.58;;
56999;SDS011;42891;50.006;21.964;2023-11-19T22:26:41;240.98;;;47.35;;
56999;SDS011;42891;50.006;21.964;2023-11-19T22:30:41;337.10;;;69.18;;
56999;SDS011;42891;50.006;21.964;2023-11-19T22:34:41;117.33;;;31.57;;
56999;SDS011;42891;50.006;21.964;2023-11-19T22:38:42;80.65;;;27.63;;
56999;SDS011;42891;50.006;21.964;2023-11-19T22:42:43;126.00;;;42.00;;
56999;SDS011;42891;50.006;21.964;2023-11-19T22:46:43;73.27;;;26.07;;
56999;SDS011;42891;50.006;21.964;2023-11-19T22:50:43;107.70;;;36.70;;
56999;SDS011;42891;50.006;21.964;2023-11-19T22:54:45;38.30;;;16.92;;
56999;SDS011;42891;50.006;21.964;2023-11-19T22:58:45;44.78;;;18.50;;
56999;SDS011;42891;50.006;21.964;2023-11-19T23:02:49;21.70;;;11.38;;
56999;SDS011;42891;50.006;21.964;2023-11-19T23:06:51;20.45;;;10.32;;
56999;SDS011;42891;50.006;21.964;2023-11-19T23:10:51;27.47;;;13.17;;
56999;SDS011;42891;50.006;21.964;2023-11-19T23:14:51;26.92;;;15.18;;
56999;SDS011;42891;50.006;21.964;2023-11-19T23:18:51;21.33;;;13.23;;
56999;SDS011;42891;50.006;21.964;2023-11-19T23:22:52;26.38;;;15.98;;
56999;SDS011;42891;50.006;21.964;2023-11-19T23:26:52;18.17;;;11.43;;
56999;SDS011;42891;50.006;21.964;2023-11-19T23:30:52;13.27;;;8.90;;
56999;SDS011;42891;50.006;21.964;2023-11-19T23:34:53;15.90;;;10.90;;